Time;durP1;ratioP1;P1;durP2;ratioP2;P2;SDS_P1;SDS_P2;PMS_P1;PMS_P2;Temp;Humidity;BMP_temperature;BMP_pressure;BME280_temperature;BME280_humidity;BME280_pressure;Samples;Min_cycle;Max_cycle;Signal;HPM_P1;HPM_P2
2024/04/03 00:04:01;;;;;;;;;;;;;;;17.48;46.17;98878.78;10414620;28;925;-70
2024/04/03 00:08:57;;;;;;;;;;;;;;;17.47;46.33;98876.22;10414270;28;1901;-70
2024/04/03 00:13:53;;;;;;;;;;;;;;;17.45;46.28;98876.31;10413736;27;917;-70
2024/04/03 00:18:49;;;;;;;;;;;;;;;17.43;46.46;98867.66;10414667;28;885;-70
2024/04/03 00:23:45;;;;;;;;;;;;;;;17.43;46.40;98861.53;10414303;28;877;-70
2024/04/03 00:28:41;;;;;;;;;;;;;;;17.41;46.38;98866.03;10413439;28;1985;-70
2024/04/03 00:33:37;;;;;;;;;;;;;;;17.40;46.25;98866.97;10413625;28;845;-70
2024/04/03 00:38:33;;;;;;;;;;;;;;;17.39;46.26;98854.72;10413415;28;954;-70
2024/04/03 00:43:29;;;;;;;;;;;;;;;17.37;46.36;98851.31;10413235;28;883;-70
2024/04/03 00:48:25;;;;;;;;;;;;;;;17.36;46.42;98854.91;10412896;28;1902;-70
2024/04/03 00:53:20;;;;;;;;;;;;;;;17.34;46.27;98854.13;10413427;28;861;-71
2024/04/03 00:58:16;;;;;;;;;;;;;;;17.33;46.46;98857.72;10412884;28;981;-70
2024/04/03 01:03:12;;;;;;;;;;;;;;;17.31;46.38;98856.00;10412792;28;889;-70
2024/04/03 01:08:08;;;;;;;;;;;;;;;17.29;46.43;98849.09;10412633;27;1897;-70
2024/04/03 01:13:04;;;;;;;;;;;;;;;17.28;46.53;98852.69;10411442;28;874;-70
2024/04/03 01:18:00;;;;;;;;;;;;;;;17.27;46.45;98836.03;10411801;28;945;-70
2024/04/03 01:22:56;;;;;;;;;;;;;;;17.26;46.33;98841.38;10412841;28;869;-70
2024/04/03 01:27:51;;;;;;;;;;;;;;;17.24;46.56;98844.13;10411366;28;1206;-70
2024/04/03 01:32:47;;;;;;;;;;;;;;;17.23;46.50;98847.66;10411745;28;1898;-70
2024/04/03 01:37:43;;;;;;;;;;;;;;;17.22;46.29;98839.88;10411278;28;988;-70
2024/04/03 01:42:39;;;;;;;;;;;;;;;17.21;46.49;98836.41;10411426;28;849;-70
2024/04/03 01:47:35;;;;;;;;;;;;;;;17.19;46.38;98827.72;10410590;28;905;-70
2024/04/03 01:52:31;;;;;;;;;;;;;;;17.19;46.59;98827.72;10411164;28;1945;-70
2024/04/03 01:57:27;;;;;;;;;;;;;;;17.17;46.55;98821.69;10411082;28;918;-70
2024/04/03 02:02:22;;;;;;;;;;;;;;;17.16;46.41;98817.38;10409383;28;737;-70
2024/04/03 02:07:18;;;;;;;;;;;;;;;17.15;46.50;98815.66;10409772;28;821;-70
2024/04/03 02:12:14;;;;;;;;;;;;;;;17.14;46.64;98821.88;10409582;28;1897;-70
2024/04/03 02:17:10;;;;;;;;;;;;;;;17.14;46.65;98818.38;10409422;28;810;-70
2024/04/03 02:22:06;;;;;;;;;;;;;;;17.12;46.46;98810.56;10409318;28;981;-70
2024/04/03 02:27:03;;;;;;;;;;;;;;;17.11;46.69;98803.59;10409370;28;1095;-70
2024/04/03 02:31:59;;;;;;;;;;;;;;;17.11;46.44;98797.47;10409797;28;1913;-70
2024/04/03 02:36:55;;;;;;;;;;;;;;;17.09;46.68;98794.94;10408704;28;864;-70
2024/04/03 02:41:50;;;;;;;;;;;;;;;17.07;46.54;98792.38;10408803;28;943;-70
2024/04/03 02:46:46;;;;;;;;;;;;;;;17.07;46.50;98792.38;10409035;27;814;-70
2024/04/03 02:51:42;;;;;;;;;;;;;;;17.06;46.61;98788.06;10408269;28;1898;-70
2024/04/03 02:56:38;;;;;;;;;;;;;;;17.05;46.53;98778.44;10407587;28;1162;-70
2024/04/03 03:01:34;;;;;;;;;;;;;;;17.05;46.77;98769.69;10408692;28;880;-70
2024/04/03 03:06:30;;;;;;;;;;;;;;;17.03;46.64;98763.69;10408019;28;808;-70
2024/04/03 03:11:26;;;;;;;;;;;;;;;17.02;46.72;98764.59;10407717;28;1917;-70
2024/04/03 03:16:22;;;;;;;;;;;;;;;17.01;46.49;98766.41;10407745;28;794;-70
2024/04/03 03:21:17;;;;;;;;;;;;;;;17.00;46.70;98761.22;10407533;28;937;-70
2024/04/03 03:26:13;;;;;;;;;;;;;;;16.99;46.74;98749.84;10407499;28;1143;-70
2024/04/03 03:31:09;;;;;;;;;;;;;;;16.99;46.72;98756.88;10416026;28;1978;-70
2024/04/03 03:36:05;;;;;;;;;;;;;;;16.98;46.62;98750.78;10415329;28;909;-70
2024/04/03 03:41:01;;;;;;;;;;;;;;;16.97;46.79;98750.84;10416019;28;900;-70
2024/04/03 03:45:57;;;;;;;;;;;;;;;16.96;46.79;98730.75;10416225;28;921;-70
2024/04/03 03:56:07;;;;;;;;;;;;;;;16.95;46.73;98729.91;10415242;28;653;-70
2024/04/03 04:01:03;;;;;;;;;;;;;;;16.95;46.77;98716.75;10414797;28;984;-70
2024/04/03 04:05:59;;;;;;;;;;;;;;;16.96;46.55;98714.94;10414122;28;876;-70
2024/04/03 04:10:55;;;;;;;;;;;;;;;16.97;46.57;98717.47;10414271;28;1957;-70
2024/04/03 04:15:51;;;;;;;;;;;;;;;16.99;46.57;98714.78;10414364;27;929;-70
2024/04/03 04:20:47;;;;;;;;;;;;;;;17.00;46.62;98706.81;10414124;28;980;-70
2024/04/03 04:25:42;;;;;;;;;;;;;;;17.04;46.85;98697.78;10413807;28;1282;-70
2024/04/03 04:30:40;;;;;;;;;;;;;;;17.06;46.79;98695.06;10413130;28;1972;-70
2024/04/03 04:35:36;;;;;;;;;;;;;;;17.09;46.65;98692.25;10413585;28;806;-70
2024/04/03 04:40:32;;;;;;;;;;;;;;;17.12;46.70;98692.06;10413124;28;917;-70
2024/04/03 04:45:28;;;;;;;;;;;;;;;17.15;46.60;98686.63;10412633;28;916;-70
2024/04/03 04:50:23;;;;;;;;;;;;;;;17.18;46.63;98678.53;10412915;28;1961;-70
2024/04/03 04:55:19;;;;;;;;;;;;;;;17.22;46.74;98666.06;10413417;28;826;-70
2024/04/03 05:00:16;;;;;;;;;;;;;;;17.25;46.64;98663.25;10412750;28;907;-70
2024/04/03 05:05:12;;;;;;;;;;;;;;;17.28;46.67;98652.53;10412938;28;864;-70
2024/04/03 05:10:08;;;;;;;;;;;;;;;17.30;46.61;98655.94;10412091;28;1901;-70
2024/04/03 05:15:04;;;;;;;;;;;;;;;17.31;46.64;98650.56;10413261;28;877;-70
2024/04/03 05:20:00;;;;;;;;;;;;;;;17.34;46.64;98657.44;10413030;27;908;-70
2024/04/03 05:24:56;;;;;;;;;;;;;;;17.38;46.69;98639.69;10411730;28;1372;-70
2024/04/03 05:29:51;;;;;;;;;;;;;;;17.40;46.78;98633.38;10411673;28;1973;-70
2024/04/03 05:34:48;;;;;;;;;;;;;;;17.41;46.73;98623.69;10411262;28;774;-71
2024/04/03 05:39:44;;;;;;;;;;;;;;;17.43;46.57;98613.91;10411398;28;978;-70
2024/04/03 05:44:40;;;;;;;;;;;;;;;17.45;46.75;98614.69;10411414;27;892;-70
2024/04/03 05:49:36;;;;;;;;;;;;;;;17.46;46.55;98609.28;10410658;28;1901;-70
2024/04/03 05:54:31;;;;;;;;;;;;;;;17.49;46.62;98621.44;10411798;27;873;-70
2024/04/03 05:59:27;;;;;;;;;;;;;;;17.50;46.56;98621.38;10410235;28;964;-71
2024/04/03 06:04:23;;;;;;;;;;;;;;;17.50;46.80;98618.72;10410003;28;1029;-71
2024/04/03 06:09:19;;;;;;;;;;;;;;;17.52;46.79;98613.34;10409648;28;1898;-72
2024/04/03 06:14:15;;;;;;;;;;;;;;;17.51;46.69;98633.59;10410300;28;972;-71
2024/04/03 06:19:12;;;;;;;;;;;;;;;17.51;46.72;98628.31;10409481;28;822;-71
2024/04/03 06:24:08;;;;;;;;;;;;;;;17.51;46.87;98638.00;10409686;28;1174;-70
2024/04/03 06:29:04;;;;;;;;;;;;;;;17.51;46.90;98632.75;10409761;28;1979;-71
2024/04/03 06:34:00;;;;;;;;;;;;;;;17.50;46.74;98634.53;10409549;28;826;-71
2024/04/03 06:38:56;;;;;;;;;;;;;;;17.49;46.89;98631.97;10409409;28;810;-71
2024/04/03 06:43:52;;;;;;;;;;;;;;;17.51;46.93;98630.94;10409157;28;891;-71
2024/04/03 06:48:48;;;;;;;;;;;;;;;17.52;47.07;98623.88;10408285;28;1910;-71
2024/04/03 06:53:44;;;;;;;;;;;;;;;17.54;46.97;98627.28;10408295;28;845;-71
2024/04/03 06:58:40;;;;;;;;;;;;;;;17.56;46.99;98632.47;10408738;28;777;-71
2024/04/03 07:03:36;;;;;;;;;;;;;;;17.56;47.00;98619.28;10407852;28;868;-71
2024/04/03 07:08:32;;;;;;;;;;;;;;;17.56;47.06;98622.78;10407882;28;1957;-71
2024/04/03 07:13:28;;;;;;;;;;;;;;;17.57;47.07;98627.09;10407785;28;818;-71
2024/04/03 07:18:24;;;;;;;;;;;;;;;17.59;46.98;98619.09;10407781;28;792;-71
2024/04/03 07:23:25;;;;;;;;;;;;;;;17.60;46.82;98631.34;10408180;28;889;-71
2024/04/03 07:28:21;;;;;;;;;;;;;;;17.61;47.35;98625.13;10407841;28;2010;-71
2024/04/03 07:33:17;;;;;;;;;;;;;;;17.62;47.07;98621.56;10407419;28;921;-71
2024/04/03 07:38:13;;;;;;;;;;;;;;;17.62;46.96;98619.75;10407386;28;900;-71
2024/04/03 07:43:09;;;;;;;;;;;;;;;17.63;47.03;98626.75;10407867;28;802;-70
2024/04/03 07:48:07;;;;;;;;;;;;;;;17.63;47.06;98625.88;10406538;28;850;-71
2024/04/03 07:53:03;;;;;;;;;;;;;;;17.63;47.01;98616.19;10406327;28;1890;-71
2024/04/03 07:57:59;;;;;;;;;;;;;;;17.65;46.90;98624.00;10407028;28;846;-71
2024/04/03 08:02:55;;;;;;;;;;;;;;;17.66;47.15;98625.72;10407510;28;867;-71
2024/04/03 08:07:50;;;;;;;;;;;;;;;17.68;46.95;98624.69;10407482;28;921;-71
2024/04/03 08:12:46;;;;;;;;;;;;;;;17.68;46.88;98622.03;10407334;28;1890;-71
2024/04/03 08:17:42;;;;;;;;;;;;;;;17.69;46.81;98621.09;10414874;28;784;-71
2024/04/03 08:22:38;;;;;;;;;;;;;;;17.70;46.83;98617.50;10414171;28;862;-71
2024/04/03 08:27:34;;;;;;;;;;;;;;;17.72;46.95;98613.00;10414458;28;1362;-71
2024/04/03 08:32:30;;;;;;;;;;;;;;;17.73;46.81;98604.13;10413706;28;1973;-71
2024/04/03 08:37:26;;;;;;;;;;;;;;;17.74;46.82;98603.22;10413674;28;830;-71
2024/04/03 08:42:22;;;;;;;;;;;;;;;17.75;46.50;98617.22;10413946;28;909;-71
2024/04/03 08:47:18;;;;;;;;;;;;;;;17.77;46.64;98612.72;10413848;28;822;-71
2024/04/03 08:52:14;;;;;;;;;;;;;;;17.75;46.78;98610.16;10412853;28;1960;-71
2024/04/03 08:57:10;;;;;;;;;;;;;;;17.76;46.89;98616.28;10411543;28;778;-71
2024/04/03 09:02:06;;;;;;;;;;;;;;;17.78;46.77;98608.28;10412522;28;799;-71
2024/04/03 09:07:02;;;;;;;;;;;;;;;17.78;46.68;98609.13;10413100;28;831;-71
2024/04/03 09:11:58;;;;;;;;;;;;;;;17.79;46.80;98604.69;10412093;27;1894;-71
2024/04/03 09:16:54;;;;;;;;;;;;;;;17.79;46.62;98602.97;10412620;28;941;-71
2024/04/03 09:21:50;;;;;;;;;;;;;;;17.81;46.56;98600.22;10412244;28;781;-71
2024/04/03 09:26:45;;;;;;;;;;;;;;;17.81;46.64;98597.59;10412142;28;1283;-71
2024/04/03 09:31:42;;;;;;;;;;;;;;;17.82;46.66;98597.50;10409213;28;1914;-70
2024/04/03 09:36:38;;;;;;;;;;;;;;;17.83;46.69;98593.91;10410753;28;865;-70
2024/04/03 09:41:34;;;;;;;;;;;;;;;17.83;46.72;98588.63;10410334;27;925;-70
2024/04/03 09:46:30;;;;;;;;;;;;;;;17.86;46.65;98585.81;10410924;28;928;-71
2024/04/03 09:51:26;;;;;;;;;;;;;;;17.86;46.67;98588.44;10410480;28;1910;-71
2024/04/03 09:56:22;;;;;;;;;;;;;;;17.85;46.55;98584.13;10410269;28;837;-71
2024/04/03 10:01:18;;;;;;;;;;;;;;;17.87;46.72;98586.69;10410066;28;818;-70
2024/04/03 10:06:16;;;;;;;;;;;;;;;17.88;46.72;98591.00;10409816;28;1213;-71
2024/04/03 10:11:12;;;;;;;;;;;;;;;17.88;46.66;98586.56;10409225;28;1968;-71
2024/04/03 10:16:08;;;;;;;;;;;;;;;17.87;46.52;98589.31;10408963;28;948;-71
2024/04/03 10:21:04;;;;;;;;;;;;;;;17.89;46.62;98584.78;10410061;28;857;-71
2024/04/03 10:26:00;;;;;;;;;;;;;;;17.90;46.43;98581.22;10408359;28;1200;-71
2024/04/03 10:30:56;;;;;;;;;;;;;;;17.90;46.55;98583.84;10408425;27;1918;-71
2024/04/03 10:35:53;;;;;;;;;;;;;;;17.91;46.44;98577.63;10408077;28;1092;-71
2024/04/03 10:40:49;;;;;;;;;;;;;;;17.93;46.53;98573.09;10409063;28;989;-71
2024/04/03 10:45:44;;;;;;;;;;;;;;;17.94;46.48;98577.44;10408114;28;794;-71
2024/04/03 10:50:40;;;;;;;;;;;;;;;17.93;46.57;98565.19;10407946;28;1902;-71
2024/04/03 10:55:36;;;;;;;;;;;;;;;17.94;46.62;98570.34;10408514;28;920;-71
2024/04/03 11:00:32;;;;;;;;;;;;;;;17.95;46.33;98569.44;10407645;28;926;-72
2024/04/03 11:05:28;;;;;;;;;;;;;;;17.94;46.59;98558.97;10408169;28;1146;-72
2024/04/03 11:10:24;;;;;;;;;;;;;;;17.96;46.65;98567.63;10407318;28;1893;-70
2024/04/03 11:15:20;;;;;;;;;;;;;;;17.96;46.66;98565.84;10407383;28;869;-71
2024/04/03 11:20:16;;;;;;;;;;;;;;;17.98;46.51;98570.19;10407172;28;992;-70
2024/04/03 11:25:12;;;;;;;;;;;;;;;17.98;46.75;98570.19;10406688;28;1159;-71
2024/04/03 11:30:08;;;;;;;;;;;;;;;17.99;46.72;98567.44;10407062;28;1905;-71
2024/04/03 11:35:04;;;;;;;;;;;;;;;18.01;46.71;98567.34;10406987;28;799;-72
2024/04/03 11:40:00;;;;;;;;;;;;;;;18.01;46.64;98562.09;10406899;28;872;-70
2024/04/03 11:44:56;;;;;;;;;;;;;;;18.02;46.65;98567.25;10407739;28;915;-70
2024/04/03 11:49:52;;;;;;;;;;;;;;;18.04;46.71;98557.44;10411438;28;1889;-73
2024/04/03 11:54:48;;;;;;;;;;;;;;;18.05;46.72;98560.94;10415099;28;992;-71
2024/04/03 11:59:44;;;;;;;;;;;;;;;18.04;46.74;98552.19;10414646;28;921;-70
2024/04/03 12:04:40;;;;;;;;;;;;;;;18.07;46.75;98556.41;10414732;28;777;-71
2024/04/03 12:09:35;;;;;;;;;;;;;;;18.06;46.50;98555.56;10414203;28;1957;-71
2024/04/03 12:14:32;;;;;;;;;;;;;;;18.07;46.52;98551.13;10414362;28;866;-71
2024/04/03 12:24:39;;;;;;;;;;;;;;;18.06;46.46;98555.56;10413915;28;1239;-70
2024/04/03 12:29:35;;;;;;;;;;;;;;;18.05;46.62;98553.88;10413365;28;1965;-71
2024/04/03 12:34:31;;;;;;;;;;;;;;;18.02;46.64;98546.16;10413581;28;752;-75
2024/04/03 12:39:27;;;;;;;;;;;;;;;18.03;46.58;98552.28;10413344;28;822;-71
2024/04/03 12:44:23;;;;;;;;;;;;;;;18.05;46.73;98548.63;10413198;28;957;-71
2024/04/03 12:49:18;;;;;;;;;;;;;;;18.07;46.75;98561.69;10413167;28;1870;-70
2024/04/03 12:54:14;;;;;;;;;;;;;;;18.07;46.53;98551.97;10413319;28;896;-71
2024/04/03 12:59:10;;;;;;;;;;;;;;;18.08;46.59;98561.59;10412293;28;830;-71
2024/04/03 13:04:06;;;;;;;;;;;;;;;18.09;46.50;98554.53;10412846;28;898;-70
2024/04/03 13:09:03;;;;;;;;;;;;;;;18.07;46.65;98567.81;10412605;28;1898;-71
2024/04/03 13:13:59;;;;;;;;;;;;;;;18.08;46.68;98553.69;10411809;28;897;-71
2024/04/03 13:18:54;;;;;;;;;;;;;;;18.07;46.76;98557.25;10412101;28;996;-70
2024/04/03 13:23:50;;;;;;;;;;;;;;;18.08;46.55;98558.13;10411569;28;891;-71
2024/04/03 13:28:46;;;;;;;;;;;;;;;18.08;46.63;98553.69;10410506;28;1902;-70
2024/04/03 13:33:42;;;;;;;;;;;;;;;18.08;46.46;98568.66;10411786;28;952;-71
2024/04/03 13:38:38;;;;;;;;;;;;;;;18.08;46.48;98569.50;10411679;28;1711;-70
2024/04/03 13:43:34;;;;;;;;;;;;;;;18.06;46.47;98558.22;10411443;28;953;-71
2024/04/03 13:48:31;;;;;;;;;;;;;;;18.08;46.51;98571.31;10410576;28;846;-70
2024/04/03 13:53:27;;;;;;;;;;;;;;;18.06;46.72;98566.13;10410278;28;901;-70
2024/04/03 13:58:23;;;;;;;;;;;;;;;18.07;46.44;98565.16;10410841;28;846;-70
2024/04/03 14:03:19;;;;;;;;;;;;;;;18.08;46.47;98563.41;10408107;28;1017;-71
2024/04/03 14:08:15;;;;;;;;;;;;;;;18.06;46.67;98563.47;10409190;28;838;-70
2024/04/03 14:13:11;;;;;;;;;;;;;;;18.06;46.69;98560.84;10408620;28;2009;-71
2024/04/03 14:18:07;;;;;;;;;;;;;;;18.07;46.71;98573.06;10409351;27;818;-71
2024/04/03 14:23:03;;;;;;;;;;;;;;;18.05;46.47;98572.34;10409323;28;1126;-71
2024/04/03 14:28:00;;;;;;;;;;;;;;;18.05;46.61;98566.19;10409161;28;1147;-71
2024/04/03 14:32:57;;;;;;;;;;;;;;;18.06;46.44;98571.41;10408714;28;1971;-71
2024/04/03 14:37:56;;;;;;;;;;;;;;;18.03;46.44;98571.59;10408615;28;909;-71
2024/04/03 14:42:52;;;;;;;;;;;;;;;18.04;46.60;98577.72;10408436;28;834;-71
2024/04/03 14:47:49;;;;;;;;;;;;;;;18.06;46.65;98566.13;10408889;28;819;-69
2024/04/03 14:52:45;;;;;;;;;;;;;;;18.05;46.60;98575.00;10408037;28;1897;-71
2024/04/03 14:57:41;;;;;;;;;;;;;;;18.04;46.76;98575.91;10408562;28;853;-71
2024/04/03 15:02:37;;;;;;;;;;;;;;;18.08;46.72;98568.66;10407901;28;852;-70
2024/04/03 15:07:33;;;;;;;;;;;;;;;18.10;46.85;98572.03;10407863;28;794;-71
2024/04/03 15:12:29;;;;;;;;;;;;;;;18.09;46.71;98568.56;10407138;28;1902;-71
2024/04/03 15:17:25;;;;;;;;;;;;;;;18.14;46.56;98560.38;10407528;28;842;-71
2024/04/03 15:22:21;;;;;;;;;;;;;;;18.25;46.51;98565.78;10411703;28;795;-71
2024/04/03 15:27:17;;;;;;;;;;;;;;;18.23;46.79;98569.47;10420682;27;1286;-71
2024/04/03 15:32:13;;;;;;;;;;;;;;;18.21;46.69;98566.06;10421574;27;1944;-71
2024/04/03 15:37:09;;;;;;;;;;;;;;;18.22;46.79;98549.31;10421000;27;967;-71
2024/04/03 15:42:06;;;;;;;;;;;;;;;18.23;46.79;98567.66;10420380;27;955;-71
2024/04/03 15:47:05;;;;;;;;;;;;;;;18.27;46.80;98557.78;10420877;27;814;-71
2024/04/03 15:52:01;;;;;;;;;;;;;;;18.27;46.73;98557.78;10421324;27;1906;-71
2024/04/03 15:56:57;;;;;;;;;;;;;;;18.25;46.76;98557.88;10420707;27;767;-71
2024/04/03 16:01:53;;;;;;;;;;;;;;;18.25;46.76;98563.16;10420579;27;991;-71
2024/04/03 16:06:49;;;;;;;;;;;;;;;18.25;46.93;98564.94;10420547;27;943;-71
2024/04/03 16:11:47;;;;;;;;;;;;;;;18.25;46.83;98564.94;10420911;27;1897;-71
2024/04/03 16:16:42;;;;;;;;;;;;;;;18.26;46.90;98561.34;10420205;27;854;-71
2024/04/03 16:21:39;;;;;;;;;;;;;;;18.26;47.07;98556.94;10420754;27;831;-71
2024/04/03 16:26:35;;;;;;;;;;;;;;;18.25;46.98;98557.03;10420552;27;1137;-71
2024/04/03 16:31:31;;;;;;;;;;;;;;;18.25;47.10;98551.75;10420558;27;1966;-71
2024/04/03 16:36:27;;;;;;;;;;;;;;;18.26;47.02;98548.16;10414430;27;859;-71
2024/04/03 16:41:23;;;;;;;;;;;;;;;18.25;46.95;98544.69;10412670;28;954;-72
2024/04/03 16:46:19;;;;;;;;;;;;;;;18.26;46.97;98558.72;10413281;28;917;-72
2024/04/03 16:51:15;;;;;;;;;;;;;;;18.24;46.95;98564.09;10412796;28;1906;-71
2024/04/03 16:56:11;;;;;;;;;;;;;;;18.25;47.12;98564.94;10413293;28;857;-71
2024/04/03 17:01:10;;;;;;;;;;;;;;;18.24;47.02;98561.47;10412585;28;826;-71
2024/04/03 17:06:06;;;;;;;;;;;;;;;18.24;46.99;98566.75;10412193;28;873;-71
2024/04/03 17:11:02;;;;;;;;;;;;;;;18.25;47.01;98568.44;10412006;28;1981;-71
2024/04/03 17:15:58;;;;;;;;;;;;;;;18.24;46.93;98579.09;10413151;28;838;-71
2024/04/03 17:20:54;;;;;;;;;;;;;;;18.24;46.85;98565.91;10411758;28;908;-71
2024/04/03 17:25:50;;;;;;;;;;;;;;;18.24;47.11;98563.28;10412337;28;1270;-71
2024/04/03 17:30:46;;;;;;;;;;;;;;;18.24;46.99;98573.81;10411966;28;1914;-71
2024/04/03 17:35:41;;;;;;;;;;;;;;;18.23;47.14;98569.47;10411768;27;848;-72
2024/04/03 17:40:37;;;;;;;;;;;;;;;18.24;47.03;98579.09;10411529;28;985;-72
2024/04/03 17:45:33;;;;;;;;;;;;;;;18.23;47.16;98583.50;10410164;28;956;-71
2024/04/03 17:50:29;;;;;;;;;;;;;;;18.23;47.10;98586.13;10410439;28;2007;-72
2024/04/03 17:55:25;;;;;;;;;;;;;;;18.23;47.04;98603.75;10410324;28;896;-72
2024/04/03 18:00:21;;;;;;;;;;;;;;;18.24;47.10;98603.66;10411007;28;962;-71
2024/04/03 18:05:17;;;;;;;;;;;;;;;18.24;47.04;98605.47;10410209;28;848;-72
2024/04/03 18:10:13;;;;;;;;;;;;;;;18.24;47.11;98616.03;10409667;28;1951;-71
2024/04/03 18:15:10;;;;;;;;;;;;;;;18.23;47.04;98620.41;10409622;28;864;-71
2024/04/03 18:20:06;;;;;;;;;;;;;;;18.24;47.10;98623.94;10409277;28;879;-72
2024/04/03 18:25:02;;;;;;;;;;;;;;;18.24;47.04;98637.13;10409413;28;1267;-71
2024/04/03 18:29:58;;;;;;;;;;;;;;;18.23;47.07;98643.31;10408917;28;1925;-71
2024/04/03 18:34:54;;;;;;;;;;;;;;;18.23;47.40;98638.03;10408229;28;960;-72
2024/04/03 18:39:49;;;;;;;;;;;;;;;18.24;47.16;98647.66;10409254;28;926;-71
2024/04/03 18:44:45;;;;;;;;;;;;;;;18.24;47.17;98666.97;10408434;28;771;-71
2024/04/03 18:49:41;;;;;;;;;;;;;;;18.24;47.18;98680.16;10408264;28;1900;-72
2024/04/03 18:54:37;;;;;;;;;;;;;;;18.24;47.13;98685.44;10408144;28;814;-71
2024/04/03 18:59:33;;;;;;;;;;;;;;;18.25;47.17;98689.75;10408234;28;953;-71
2024/04/03 19:04:29;;;;;;;;;;;;;;;18.25;47.13;98702.94;10407932;28;868;-71
2024/04/03 19:09:26;;;;;;;;;;;;;;;18.26;47.14;98728.41;10407708;28;1906;-71
2024/04/03 19:14:22;;;;;;;;;;;;;;;18.27;47.09;98734.53;10408475;28;857;-71
2024/04/03 19:19:18;;;;;;;;;;;;;;;18.27;47.20;98731.88;10407195;28;1176;-71
2024/04/03 19:24:14;;;;;;;;;;;;;;;18.27;47.46;98747.72;10407249;28;1202;-71
2024/04/03 19:29:10;;;;;;;;;;;;;;;18.27;47.18;98751.19;10406765;28;1914;-71
2024/04/03 19:34:06;;;;;;;;;;;;;;;18.27;47.20;98745.06;10407849;28;976;-71
2024/04/03 19:39:04;;;;;;;;;;;;;;;18.27;47.22;98758.25;10407323;28;778;-71
2024/04/03 19:44:00;;;;;;;;;;;;;;;18.27;47.28;98759.09;10406405;28;1204;-72
2024/04/03 19:48:57;;;;;;;;;;;;;;;18.27;47.21;98766.16;10406955;28;1905;-71
2024/04/03 19:53:52;;;;;;;;;;;;;;;18.27;47.13;98774.09;10407568;28;877;-71
2024/04/03 19:58:48;;;;;;;;;;;;;;;18.26;47.03;98772.38;10407546;28;830;-72
2024/04/03 20:03:44;;;;;;;;;;;;;;;18.25;47.29;98781.25;10407724;28;849;-71
2024/04/03 20:08:40;;;;;;;;;;;;;;;18.25;47.44;98787.34;10407792;28;870;-72
2024/04/03 20:13:36;;;;;;;;;;;;;;;18.25;47.25;98791.78;10413750;28;1943;-71
2024/04/03 20:18:32;;;;;;;;;;;;;;;18.23;47.11;98794.50;10414741;28;894;-71
2024/04/03 20:23:29;;;;;;;;;;;;;;;18.24;47.36;98798.03;10414356;28;1024;-71
2024/04/03 20:28:25;;;;;;;;;;;;;;;18.22;47.26;98797.25;10413887;28;1239;-71
2024/04/03 20:33:20;;;;;;;;;;;;;;;18.22;47.06;98807.81;10413854;28;1910;-71
2024/04/03 20:38:16;;;;;;;;;;;;;;;18.20;47.09;98809.69;10413117;28;841;-71
2024/04/03 20:43:12;;;;;;;;;;;;;;;18.21;47.18;98817.50;10414144;28;898;-71
2024/04/03 20:48:09;;;;;;;;;;;;;;;18.20;47.08;98823.72;10413007;27;968;-71
2024/04/03 20:53:04;;;;;;;;;;;;;;;18.18;47.01;98831.72;10413598;28;1894;-71
2024/04/03 20:58:02;;;;;;;;;;;;;;;18.18;47.13;98833.50;10413545;28;913;-71
2024/04/03 21:02:57;;;;;;;;;;;;;;;18.16;46.93;98841.53;10412927;28;886;-71
2024/04/03 21:07:53;;;;;;;;;;;;;;;18.15;46.95;98834.53;10412539;27;861;-71
2024/04/03 21:12:50;;;;;;;;;;;;;;;18.14;46.95;98837.28;10412411;28;1947;-71
2024/04/03 21:17:46;;;;;;;;;;;;;;;18.12;46.73;98833.88;10412805;28;868;-71
2024/04/03 21:22:42;;;;;;;;;;;;;;;18.11;46.86;98846.22;10412143;28;829;-71
2024/04/03 21:27:39;;;;;;;;;;;;;;;18.09;46.93;98849.88;10412736;28;1123;-71
2024/04/03 21:32:35;;;;;;;;;;;;;;;18.06;46.73;98855.34;10411458;28;1963;-71
2024/04/03 21:37:31;;;;;;;;;;;;;;;18.05;46.80;98859.78;10410856;28;862;-71
2024/04/03 21:42:26;;;;;;;;;;;;;;;18.03;46.81;98860.78;10411860;28;760;-71
2024/04/03 21:47:22;;;;;;;;;;;;;;;18.01;46.64;98873.22;10411048;28;879;-71
2024/04/03 21:52:18;;;;;;;;;;;;;;;17.99;46.74;98864.53;10410738;28;1945;-71
2024/04/03 21:57:14;;;;;;;;;;;;;;;17.97;46.55;98872.53;10410526;28;936;-71
2024/04/03 22:02:10;;;;;;;;;;;;;;;17.95;46.53;98872.63;10409822;28;945;-71
2024/04/03 22:07:06;;;;;;;;;;;;;;;17.94;46.49;98862.16;10410131;27;877;-71
2024/04/03 22:12:02;;;;;;;;;;;;;;;17.92;46.62;98874.56;10409286;28;1994;-71
2024/04/03 22:16:58;;;;;;;;;;;;;;;17.91;46.56;98880.78;10409787;28;855;-71
2024/04/03 22:21:54;;;;;;;;;;;;;;;17.88;46.21;98884.47;10409490;28;952;-71
2024/04/03 22:26:50;;;;;;;;;;;;;;;17.88;46.51;98894.16;10408953;28;1414;-71
2024/04/03 22:31:45;;;;;;;;;;;;;;;17.86;46.70;98896.03;10408530;28;1906;-71
2024/04/03 22:36:41;;;;;;;;;;;;;;;17.82;46.47;98903.28;10409674;28;897;-71
2024/04/03 22:41:37;;;;;;;;;;;;;;;17.81;46.48;98909.47;10409694;28;877;-71
2024/04/03 22:46:33;;;;;;;;;;;;;;;17.80;46.35;98912.22;10409318;28;879;-71
2024/04/03 22:51:29;;;;;;;;;;;;;;;17.77;46.50;98912.34;10409122;28;1956;-71
2024/04/03 22:56:25;;;;;;;;;;;;;;;17.77;46.51;98912.34;10407898;28;1020;-71
2024/04/03 23:01:21;;;;;;;;;;;;;;;17.73;46.57;98912.50;10407741;28;853;-71
2024/04/03 23:06:17;;;;;;;;;;;;;;;17.71;46.27;98921.44;10408738;28;829;-71
2024/04/03 23:11:12;;;;;;;;;;;;;;;17.69;46.36;98921.53;10407967;28;1893;-71
2024/04/03 23:16:08;;;;;;;;;;;;;;;17.69;46.65;98925.97;10407929;28;905;-71
2024/04/03 23:21:04;;;;;;;;;;;;;;;17.66;46.57;98934.03;10407842;28;762;-71
2024/04/03 23:26:00;;;;;;;;;;;;;;;17.65;46.49;98929.69;10407666;28;1349;-71
2024/04/03 23:30:56;;;;;;;;;;;;;;;17.63;46.46;98929.78;10408496;28;1906;-71
2024/04/03 23:35:52;;;;;;;;;;;;;;;17.61;46.55;98920.28;10407436;28;885;-71
2024/04/03 23:40:48;;;;;;;;;;;;;;;17.59;46.46;98917.69;10407444;28;866;-71
2024/04/03 23:45:44;;;;;;;;;;;;;;;17.58;46.41;98905.47;10414551;28;778;-71
2024/04/03 23:50:39;;;;;;;;;;;;;;;17.57;46.43;98906.38;10414935;28;1882;-71
2024/04/03 23:55:35;;;;;;;;;;;;;;;17.56;46.44;98911.75;10415829;28;879;-71
